Time;durP1;ratioP1;P1;durP2;ratioP2;P2;SDS_P1;SDS_P2;PMS_P1;PMS_P2;Temp;Humidity;BMP_temperature;BMP_pressure;BME280_temperature;BME280_humidity;BME280_pressure;Samples;Min_cycle;Max_cycle;Signal;HPM_P1;HPM_P2
2023/07/02 00:00:55;;;;;;;;;;;24.80;52.30;;;;;;4906127;29;20026;-91
2023/07/02 00:03:24;;;;;;;;;;;24.80;52.30;;;;;;4907194;29;19919;-93
2023/07/02 00:05:57;;;;;;;;;;;24.80;52.30;;;;;;4898145;29;20153;-91
2023/07/02 00:08:22;;;;;;;;;;;24.80;52.30;;;;;;4899233;29;20076;-91
2023/07/02 00:10:48;;;;;;;;;;;24.80;52.30;;;;;;4900539;29;20268;-91
2023/07/02 00:13:14;;;;;;;;;;;24.80;52.30;;;;;;4897611;29;19907;-91
2023/07/02 00:15:41;;;;;;;;;;;24.80;52.30;;;;;;4899773;29;19916;-91
2023/07/02 00:18:16;;;;;;;;;;;24.80;52.30;;;;;;4871166;29;20236;-91
2023/07/02 00:20:42;;;;;;;;;;;24.80;52.30;;;;;;4893972;29;19912;-91
2023/07/02 00:23:09;;;;;;;;;;;24.80;52.30;;;;;;4894963;29;20247;-90
2023/07/02 00:25:35;;;;;;;;;;;24.80;52.30;;;;;;4900078;29;19922;-91
2023/07/02 00:28:01;;;;;;;;;;;24.70;52.30;;;;;;4896737;29;20236;-91
2023/07/02 00:30:26;;;;;;;;;;;24.70;52.30;;;;;;4899724;29;19911;-91
2023/07/02 00:32:52;;;;;;;;;;;24.70;52.30;;;;;;4898626;29;20169;-92
2023/07/02 00:35:18;;;;;;;;;;;24.80;52.40;;;;;;4899756;29;20291;-91
2023/07/02 00:37:43;;;;;;;;;;;24.70;52.30;;;;;;4898381;29;20288;-91
2023/07/02 00:40:09;;;;;;;;;;;24.70;52.30;;;;;;4891027;29;19983;-91
2023/07/02 00:42:35;;;;;;;;;;;24.70;52.30;;;;;;4900201;29;20298;-92
2023/07/02 00:45:04;;;;;;;;;;;24.70;52.30;;;;;;4913082;29;19958;-91
2023/07/02 00:47:33;;;;;;;;;;;24.70;52.30;;;;;;4906883;29;20154;-91
2023/07/02 00:49:59;;;;;;;;;;;24.70;52.30;;;;;;4896794;29;20046;-91
2023/07/02 00:52:25;;;;;;;;;;;24.70;52.30;;;;;;4908586;29;20248;-91
2023/07/02 00:54:51;;;;;;;;;;;24.70;52.30;;;;;;4907245;29;20304;-91
2023/07/02 00:57:17;;;;;;;;;;;24.70;52.30;;;;;;4900251;29;19916;-91
2023/07/02 00:59:42;;;;;;;;;;;24.70;52.30;;;;;;4897006;29;19994;-92
2023/07/02 01:02:08;;;;;;;;;;;24.60;52.30;;;;;;4908345;29;19919;-91
2023/07/02 01:04:34;;;;;;;;;;;24.70;52.30;;;;;;4908441;29;19918;-91
2023/07/02 01:06:59;;;;;;;;;;;24.60;52.30;;;;;;4898407;29;19912;-91
2023/07/02 01:09:34;;;;;;;;;;;24.60;52.30;;;;;;4899495;29;19947;-91
2023/07/02 01:12:01;;;;;;;;;;;24.60;52.30;;;;;;4900507;29;19921;-91
2023/07/02 01:14:41;;;;;;;;;;;24.60;52.30;;;;;;4899068;29;20265;-91
2023/07/02 01:17:06;;;;;;;;;;;24.60;52.30;;;;;;4906123;29;19919;-92
2023/07/02 01:20:02;;;;;;;;;;;24.60;52.30;;;;;;4896621;29;20280;-91
2023/07/02 01:22:28;;;;;;;;;;;24.60;52.30;;;;;;4887365;29;19945;-91
2023/07/02 01:24:54;;;;;;;;;;;24.60;52.30;;;;;;4889814;29;20266;-91
2023/07/02 01:27:21;;;;;;;;;;;24.60;52.30;;;;;;4890009;29;19915;-92
2023/07/02 01:29:47;;;;;;;;;;;24.60;52.30;;;;;;4897811;29;19911;-92
2023/07/02 01:32:15;;;;;;;;;;;24.60;52.40;;;;;;4898932;29;19938;-91
2023/07/02 01:34:43;;;;;;;;;;;24.60;52.40;;;;;;4898869;29;20339;-91
2023/07/02 01:37:09;;;;;;;;;;;24.60;52.40;;;;;;4898274;29;19982;-91
2023/07/02 01:39:35;;;;;;;;;;;24.60;52.40;;;;;;4898328;29;20232;-91
2023/07/02 01:42:16;;;;;;;;;;;24.50;52.30;;;;;;4895640;29;20179;-93
2023/07/02 01:44:43;;;;;;;;;;;24.50;52.30;;;;;;4892768;29;19934;-92
2023/07/02 01:47:19;;;;;;;;;;;24.50;52.30;;;;;;4895759;29;19919;-93
2023/07/02 01:49:45;;;;;;;;;;;24.50;52.30;;;;;;4896031;29;19956;-92
2023/07/02 01:52:10;;;;;;;;;;;24.50;52.40;;;;;;4906861;29;20580;-91
2023/07/02 01:54:36;;;;;;;;;;;24.50;52.40;;;;;;4899022;29;19922;-92
2023/07/02 01:57:12;;;;;;;;;;;24.50;52.40;;;;;;4897163;29;19990;-92
2023/07/02 01:59:37;;;;;;;;;;;24.50;52.40;;;;;;4907414;29;19923;-91
2023/07/02 02:02:03;;;;;;;;;;;24.50;52.30;;;;;;4900983;29;19915;-91
2023/07/02 02:04:29;;;;;;;;;;;24.50;52.40;;;;;;4897937;29;19962;-91
2023/07/02 02:06:55;;;;;;;;;;;24.50;52.40;;;;;;4898619;29;19943;-91
2023/07/02 02:09:21;;;;;;;;;;;24.50;52.40;;;;;;4897668;29;19912;-92
2023/07/02 02:11:48;;;;;;;;;;;24.50;52.40;;;;;;4900916;29;19922;-91
2023/07/02 02:14:13;;;;;;;;;;;24.50;52.40;;;;;;4900167;29;20200;-92
2023/07/02 02:16:39;;;;;;;;;;;24.50;52.80;;;;;;4898618;29;19915;-91
2023/07/02 02:19:04;;;;;;;;;;;24.50;52.40;;;;;;4895618;29;19911;-91
2023/07/02 02:21:30;;;;;;;;;;;24.40;52.40;;;;;;4902493;29;19916;-91
2023/07/02 02:23:56;;;;;;;;;;;24.40;52.40;;;;;;4903472;29;20006;-91
2023/07/02 02:26:22;;;;;;;;;;;24.40;52.40;;;;;;4903178;29;20138;-91
2023/07/02 02:28:48;;;;;;;;;;;24.40;52.40;;;;;;4902131;29;19922;-91
2023/07/02 02:31:14;;;;;;;;;;;24.40;52.40;;;;;;4900310;29;19919;-91
2023/07/02 02:33:39;;;;;;;;;;;24.40;52.40;;;;;;4902792;29;19937;-91
2023/07/02 02:36:05;;;;;;;;;;;24.40;52.40;;;;;;4901826;29;20145;-92
2023/07/02 02:38:31;;;;;;;;;;;24.40;52.40;;;;;;4900356;29;19919;-91
2023/07/02 02:40:56;;;;;;;;;;;24.40;52.40;;;;;;4902872;29;19934;-91
2023/07/02 02:43:22;;;;;;;;;;;24.40;52.50;;;;;;4902462;29;19945;-91
2023/07/02 02:45:48;;;;;;;;;;;24.40;52.40;;;;;;4902036;29;19911;-91
2023/07/02 02:48:13;;;;;;;;;;;24.40;52.40;;;;;;4903193;29;19911;-92
2023/07/02 02:50:41;;;;;;;;;;;24.40;52.40;;;;;;4902690;29;19911;-92
2023/07/02 02:53:07;;;;;;;;;;;24.40;52.40;;;;;;4902783;29;19911;-92
2023/07/02 02:55:32;;;;;;;;;;;24.40;52.40;;;;;;4900336;29;19960;-92
2023/07/02 02:57:58;;;;;;;;;;;24.30;52.40;;;;;;4901158;29;19941;-91
2023/07/02 03:00:23;;;;;;;;;;;24.30;52.40;;;;;;4902449;29;19911;-91
2023/07/02 03:02:49;;;;;;;;;;;24.30;52.40;;;;;;4899237;29;19917;-91
2023/07/02 03:05:15;;;;;;;;;;;24.30;52.40;;;;;;4892443;29;19912;-93
2023/07/02 03:07:41;;;;;;;;;;;24.30;52.40;;;;;;4902608;29;19919;-91
2023/07/02 03:10:07;;;;;;;;;;;24.30;52.50;;;;;;4901124;29;20241;-92
2023/07/02 03:12:34;;;;;;;;;;;24.30;52.50;;;;;;4902092;29;19946;-91
2023/07/02 03:15:00;;;;;;;;;;;24.30;52.50;;;;;;4902930;29;19912;-91
2023/07/02 03:17:25;;;;;;;;;;;24.30;52.40;;;;;;4902856;29;19984;-91
2023/07/02 03:19:51;;;;;;;;;;;24.30;52.50;;;;;;4902180;29;19916;-91
2023/07/02 03:22:17;;;;;;;;;;;24.30;52.40;;;;;;4899779;29;19923;-91
2023/07/02 03:24:42;;;;;;;;;;;24.30;52.40;;;;;;4903102;29;20010;-89
2023/07/02 03:27:08;;;;;;;;;;;24.30;52.40;;;;;;4901287;29;19990;-89
2023/07/02 03:29:34;;;;;;;;;;;24.30;52.50;;;;;;4900931;29;19926;-89
2023/07/02 03:32:00;;;;;;;;;;;24.30;52.40;;;;;;4898560;29;19975;-89
2023/07/02 03:34:25;;;;;;;;;;;24.30;52.50;;;;;;4900495;29;19919;-89
2023/07/02 03:36:51;;;;;;;;;;;24.30;52.50;;;;;;4901766;29;19959;-89
2023/07/02 03:39:17;;;;;;;;;;;24.30;52.50;;;;;;4899099;29;20298;-89
2023/07/02 03:41:43;;;;;;;;;;;24.20;52.40;;;;;;4911101;29;19920;-89
2023/07/02 03:44:09;;;;;;;;;;;24.20;52.40;;;;;;4901410;29;20300;-89
2023/07/02 03:46:34;;;;;;;;;;;24.20;52.50;;;;;;4904175;29;19957;-89
2023/07/02 03:49:00;;;;;;;;;;;24.20;52.50;;;;;;4901632;29;19912;-91
2023/07/02 03:51:29;;;;;;;;;;;24.20;52.40;;;;;;4900674;29;19947;-90
2023/07/02 03:54:00;;;;;;;;;;;24.20;52.40;;;;;;4910033;29;19912;-90
2023/07/02 03:56:26;;;;;;;;;;;24.20;52.40;;;;;;4902785;29;20261;-90
2023/07/02 03:58:52;;;;;;;;;;;24.20;52.50;;;;;;4900599;29;19922;-89
2023/07/02 04:01:18;;;;;;;;;;;24.20;52.40;;;;;;4898419;29;19932;-91
2023/07/02 04:03:50;;;;;;;;;;;24.20;52.40;;;;;;4900514;29;19987;-89
2023/07/02 04:06:16;;;;;;;;;;;24.20;52.40;;;;;;4901480;29;19922;-90
2023/07/02 04:08:42;;;;;;;;;;;24.20;52.50;;;;;;4901156;29;19998;-90
2023/07/02 04:11:08;;;;;;;;;;;24.20;52.50;;;;;;4902296;29;20483;-90
2023/07/02 04:13:33;;;;;;;;;;;24.20;52.50;;;;;;4900293;29;19912;-90
2023/07/02 04:15:59;;;;;;;;;;;24.20;52.40;;;;;;4899889;29;19946;-90
2023/07/02 04:18:25;;;;;;;;;;;24.20;52.40;;;;;;4901352;29;19925;-90
2023/07/02 04:20:50;;;;;;;;;;;24.20;52.90;;;;;;4898249;29;19911;-90
2023/07/02 04:23:16;;;;;;;;;;;24.20;52.50;;;;;;4899805;29;19942;-90
2023/07/02 04:25:42;;;;;;;;;;;24.10;52.40;;;;;;4897848;29;20126;-90
2023/07/02 04:28:07;;;;;;;;;;;24.10;52.40;;;;;;4901111;29;20264;-91
2023/07/02 04:30:36;;;;;;;;;;;24.10;52.40;;;;;;4906274;29;19911;-90
2023/07/02 04:33:02;;;;;;;;;;;24.10;52.40;;;;;;4901304;29;19966;-90
2023/07/02 04:35:27;;;;;;;;;;;24.10;52.40;;;;;;4900561;29;20355;-90
2023/07/02 04:37:53;;;;;;;;;;;24.10;52.40;;;;;;4899587;29;19955;-91
2023/07/02 04:40:18;;;;;;;;;;;24.10;52.40;;;;;;4898254;29;19979;-91
2023/07/02 04:42:46;;;;;;;;;;;24.10;52.50;;;;;;4908394;29;19914;-91
2023/07/02 04:45:36;;;;;;;;;;;24.10;52.40;;;;;;4899233;29;20244;-91
2023/07/02 04:48:02;;;;;;;;;;;24.10;52.40;;;;;;4890110;29;19911;-91
2023/07/02 04:50:28;;;;;;;;;;;24.10;52.40;;;;;;4897621;29;19946;-91
2023/07/02 04:52:55;;;;;;;;;;;24.10;52.40;;;;;;4899732;29;20367;-91
2023/07/02 04:55:21;;;;;;;;;;;24.10;52.40;;;;;;4899901;29;19970;-91
2023/07/02 04:57:46;;;;;;;;;;;24.10;52.40;;;;;;4899709;29;20017;-91
2023/07/02 05:00:12;;;;;;;;;;;24.10;52.40;;;;;;4900219;29;19977;-91
2023/07/02 05:02:38;;;;;;;;;;;24.10;52.40;;;;;;4905338;29;20026;-91
2023/07/02 05:05:04;;;;;;;;;;;24.10;52.40;;;;;;4898737;29;20232;-91
2023/07/02 05:07:29;;;;;;;;;;;24.10;52.40;;;;;;4897448;29;20232;-91
2023/07/02 05:09:55;;;;;;;;;;;24.10;52.40;;;;;;4897038;29;19997;-91
2023/07/02 05:12:23;;;;;;;;;;;24.10;52.40;;;;;;4895668;29;19922;-91
2023/07/02 05:14:48;;;;;;;;;;;24.10;52.40;;;;;;4897822;29;19911;-91
2023/07/02 05:17:14;;;;;;;;;;;24.10;52.40;;;;;;4906398;29;20199;-91
2023/07/02 05:19:41;;;;;;;;;;;24.10;52.40;;;;;;4904583;29;20032;-91
2023/07/02 05:22:06;;;;;;;;;;;24.10;52.40;;;;;;4897872;29;19915;-91
2023/07/02 05:24:32;;;;;;;;;;;24.10;52.40;;;;;;4899539;29;19974;-91
2023/07/02 05:26:57;;;;;;;;;;;24.10;52.40;;;;;;4908932;29;20086;-91
2023/07/02 05:29:23;;;;;;;;;;;24.10;52.40;;;;;;4899511;29;19912;-91
2023/07/02 05:31:49;;;;;;;;;;;24.10;52.40;;;;;;4897641;29;19954;-91
2023/07/02 05:34:14;;;;;;;;;;;24.10;52.30;;;;;;4899351;29;20062;-91
2023/07/02 05:36:40;;;;;;;;;;;24.20;52.40;;;;;;4898566;29;20304;-91
2023/07/02 05:39:15;;;;;;;;;;;24.20;52.30;;;;;;4897929;29;20188;-91
2023/07/02 05:41:41;;;;;;;;;;;24.20;52.30;;;;;;4905394;29;19915;-91
2023/07/02 05:44:06;;;;;;;;;;;24.20;52.20;;;;;;4899439;29;19926;-91
2023/07/02 05:46:32;;;;;;;;;;;24.30;52.20;;;;;;4898443;29;20319;-91
2023/07/02 05:48:59;;;;;;;;;;;24.30;52.20;;;;;;4903735;29;19940;-91
2023/07/02 05:51:25;;;;;;;;;;;24.30;52.20;;;;;;4899031;29;19915;-91
2023/07/02 05:53:51;;;;;;;;;;;24.30;52.10;;;;;;4910376;29;19922;-91
2023/07/02 05:56:17;;;;;;;;;;;24.30;52.10;;;;;;4900945;29;19918;-91
2023/07/02 05:58:42;;;;;;;;;;;24.30;52.10;;;;;;4903551;29;19915;-91
2023/07/02 06:01:08;;;;;;;;;;;24.30;52.10;;;;;;4901031;29;19911;-90
2023/07/02 06:03:34;;;;;;;;;;;24.30;52.10;;;;;;4911918;29;20278;-91
2023/07/02 06:05:59;;;;;;;;;;;24.30;52.10;;;;;;4902657;29;20002;-91
2023/07/02 06:08:25;;;;;;;;;;;24.40;52.10;;;;;;4909178;29;19922;-91
2023/07/02 06:10:51;;;;;;;;;;;24.30;52.50;;;;;;4902670;29;19911;-91
2023/07/02 06:13:16;;;;;;;;;;;24.40;52.10;;;;;;4902405;29;19983;-91
2023/07/02 06:15:42;;;;;;;;;;;24.40;52.00;;;;;;4903242;29;19912;-91
2023/07/02 06:18:09;;;;;;;;;;;24.40;52.00;;;;;;4902228;29;19926;-91
2023/07/02 06:20:35;;;;;;;;;;;24.50;52.00;;;;;;4903126;29;19899;-91
2023/07/02 06:23:01;;;;;;;;;;;24.50;51.90;;;;;;4907443;29;19977;-91
2023/07/02 06:25:26;;;;;;;;;;;24.50;51.90;;;;;;4901347;29;20002;-91
2023/07/02 06:27:54;;;;;;;;;;;24.50;51.80;;;;;;4901956;29;19934;-91
2023/07/02 06:30:23;;;;;;;;;;;24.50;51.80;;;;;;4902440;29;19915;-92
2023/07/02 06:32:49;;;;;;;;;;;24.60;51.80;;;;;;4899077;29;19911;-91
2023/07/02 06:35:14;;;;;;;;;;;24.60;51.70;;;;;;4899092;29;20166;-91
2023/07/02 06:37:40;;;;;;;;;;;24.70;51.70;;;;;;4898904;29;19935;-92
2023/07/02 06:40:06;;;;;;;;;;;24.80;51.60;;;;;;4902789;29;19955;-91
2023/07/02 06:42:32;;;;;;;;;;;24.80;51.50;;;;;;4899279;29;20047;-91
2023/07/02 06:44:58;;;;;;;;;;;24.90;51.50;;;;;;4899478;29;20281;-91
2023/07/02 06:47:24;;;;;;;;;;;24.90;51.40;;;;;;4900687;29;19916;-91
2023/07/02 06:49:51;;;;;;;;;;;24.90;51.40;;;;;;4898415;29;20005;-92
2023/07/02 06:52:17;;;;;;;;;;;24.90;51.40;;;;;;4906976;29;20192;-91
2023/07/02 06:54:42;;;;;;;;;;;24.90;51.30;;;;;;4908478;29;19911;-91
2023/07/02 06:57:08;;;;;;;;;;;25.00;51.40;;;;;;4898164;29;19935;-91
2023/07/02 06:59:34;;;;;;;;;;;25.00;51.30;;;;;;4901779;29;19918;-92
2023/07/02 07:01:59;;;;;;;;;;;25.10;51.30;;;;;;4900481;29;20429;-91
2023/07/02 07:04:34;;;;;;;;;;;25.10;51.20;;;;;;4899243;29;20006;-92
2023/07/02 07:07:02;;;;;;;;;;;25.20;51.20;;;;;;4890812;29;20196;-91
2023/07/02 07:09:32;;;;;;;;;;;25.20;51.20;;;;;;4901275;29;20341;-91
2023/07/02 07:11:57;;;;;;;;;;;25.20;51.10;;;;;;4907642;29;19912;-91
2023/07/02 07:14:23;;;;;;;;;;;25.30;51.10;;;;;;4884143;29;20001;-91
2023/07/02 07:16:49;;;;;;;;;;;25.40;51.10;;;;;;4897858;29;19915;-91
2023/07/02 07:19:14;;;;;;;;;;;25.40;51.00;;;;;;4890708;29;19918;-91
2023/07/02 07:21:40;;;;;;;;;;;25.50;50.90;;;;;;4901285;29;19915;-91
2023/07/02 07:24:06;;;;;;;;;;;25.60;50.80;;;;;;4900812;29;19927;-91
2023/07/02 07:26:31;;;;;;;;;;;25.70;50.80;;;;;;4899452;29;20002;-91
2023/07/02 07:28:57;;;;;;;;;;;25.70;50.70;;;;;;4898959;29;20010;-91
2023/07/02 07:31:32;;;;;;;;;;;25.70;50.60;;;;;;4900301;29;19911;-91
2023/07/02 07:33:58;;;;;;;;;;;25.80;50.70;;;;;;4891801;29;20180;-91
2023/07/02 07:36:24;;;;;;;;;;;25.80;50.60;;;;;;4896880;29;19911;-91
2023/07/02 07:38:49;;;;;;;;;;;25.80;50.60;;;;;;4903642;29;19915;-91
2023/07/02 07:41:15;;;;;;;;;;;25.80;50.60;;;;;;4899070;29;19915;-91
2023/07/02 07:43:41;;;;;;;;;;;25.80;50.60;;;;;;4894902;29;19957;-91
2023/07/02 07:46:07;;;;;;;;;;;25.80;50.60;;;;;;4888413;29;20088;-92
2023/07/02 07:48:33;;;;;;;;;;;25.80;50.60;;;;;;4897606;29;20001;-92
2023/07/02 07:50:58;;;;;;;;;;;25.90;50.60;;;;;;4895936;29;20090;-92
2023/07/02 07:53:30;;;;;;;;;;;26.00;50.50;;;;;;4896690;29;20018;-91
2023/07/02 07:55:55;;;;;;;;;;;26.10;50.40;;;;;;4896761;29;19916;-91
2023/07/02 07:58:24;;;;;;;;;;;26.10;50.30;;;;;;4899274;29;20156;-91
2023/07/02 08:00:49;;;;;;;;;;;26.10;50.40;;;;;;4897745;29;19919;-92
2023/07/02 08:03:15;;;;;;;;;;;26.00;50.40;;;;;;4895752;29;19971;-91
2023/07/02 08:05:47;;;;;;;;;;;25.90;50.50;;;;;;4898583;29;20250;-91
2023/07/02 08:08:12;;;;;;;;;;;25.90;50.50;;;;;;4902309;29;19922;-91
2023/07/02 08:10:38;;;;;;;;;;;25.90;50.60;;;;;;4900776;29;19974;-91
2023/07/02 08:13:03;;;;;;;;;;;25.90;50.70;;;;;;4905409;29;19933;-91
2023/07/02 08:15:29;;;;;;;;;;;25.80;50.70;;;;;;4890591;29;20180;-91
2023/07/02 08:17:57;;;;;;;;;;;25.80;50.70;;;;;;4896018;29;19919;-90
2023/07/02 08:20:23;;;;;;;;;;;25.70;50.80;;;;;;4888649;29;20126;-92
2023/07/02 08:22:51;;;;;;;;;;;25.70;50.80;;;;;;4896036;29;20025;-91
2023/07/02 08:25:17;;;;;;;;;;;25.70;50.80;;;;;;4906053;29;19919;-91
2023/07/02 08:27:43;;;;;;;;;;;25.70;51.30;;;;;;4895141;29;20212;-91
2023/07/02 08:30:15;;;;;;;;;;;25.60;50.90;;;;;;4898364;29;20102;-91
2023/07/02 08:32:40;;;;;;;;;;;25.60;51.00;;;;;;4889212;29;20018;-91
2023/07/02 08:35:06;;;;;;;;;;;25.60;51.00;;;;;;4898439;29;19988;-92
2023/07/02 08:37:32;;;;;;;;;;;25.60;51.00;;;;;;4903184;29;19929;-89
2023/07/02 08:39:57;;;;;;;;;;;25.60;51.00;;;;;;4902666;29;19983;-90
2023/07/02 08:42:23;;;;;;;;;;;25.60;51.10;;;;;;4896642;29;19919;-91
2023/07/02 08:44:53;;;;;;;;;;;25.60;51.00;;;;;;4897097;29;20121;-92
2023/07/02 08:47:21;;;;;;;;;;;25.50;51.00;;;;;;4903269;29;20476;-90
2023/07/02 08:49:48;;;;;;;;;;;25.60;51.00;;;;;;4905064;29;20002;-91
2023/07/02 08:52:14;;;;;;;;;;;25.60;51.00;;;;;;4894902;29;19912;-92
2023/07/02 08:54:39;;;;;;;;;;;25.70;51.00;;;;;;4896760;29;19926;-91
2023/07/02 08:57:05;;;;;;;;;;;25.70;50.90;;;;;;4896904;29;20258;-92
2023/07/02 08:59:31;;;;;;;;;;;25.70;50.80;;;;;;4878251;29;19916;-90
2023/07/02 09:02:02;;;;;;;;;;;25.80;50.80;;;;;;4892821;29;19923;-92
2023/07/02 09:04:28;;;;;;;;;;;25.80;50.70;;;;;;4896031;29;19926;-91
2023/07/02 09:07:07;;;;;;;;;;;25.80;50.70;;;;;;4896553;29;19943;-91
2023/07/02 09:09:49;;;;;;;;;;;25.80;50.70;;;;;;4906373;29;19911;-91
2023/07/02 09:12:24;;;;;;;;;;;25.90;50.70;;;;;;4896490;29;19926;-91
2023/07/02 09:14:57;;;;;;;;;;;26.00;50.60;;;;;;4888414;29;19919;-91
2023/07/02 09:17:26;;;;;;;;;;;26.00;50.50;;;;;;4904129;29;20353;-91
2023/07/02 09:19:52;;;;;;;;;;;26.10;50.40;;;;;;4892439;29;19916;-91
2023/07/02 09:22:18;;;;;;;;;;;26.20;50.40;;;;;;4904205;29;20143;-91
2023/07/02 09:24:51;;;;;;;;;;;26.20;50.40;;;;;;4905432;29;19923;-91
2023/07/02 09:27:17;;;;;;;;;;;26.20;50.30;;;;;;4898223;29;20122;-91
2023/07/02 09:29:49;;;;;;;;;;;26.20;50.30;;;;;;4901669;29;20264;-91
2023/07/02 09:32:23;;;;;;;;;;;26.20;50.30;;;;;;4903704;29;19922;-91
2023/07/02 09:34:48;;;;;;;;;;;26.10;50.30;;;;;;4908045;29;19950;-90
2023/07/02 09:37:14;;;;;;;;;;;26.10;50.40;;;;;;4905156;29;19946;-90
2023/07/02 09:39:39;;;;;;;;;;;26.00;50.50;;;;;;4901033;29;20014;-90
2023/07/02 09:42:06;;;;;;;;;;;25.90;50.50;;;;;;4907727;29;19915;-91
2023/07/02 09:44:36;;;;;;;;;;;25.90;50.50;;;;;;4902179;29;19911;-91
2023/07/02 09:47:04;;;;;;;;;;;25.90;50.50;;;;;;4896508;29;19922;-90
2023/07/02 09:50:00;;;;;;;;;;;26.00;50.50;;;;;;4907766;29;20017;-91
2023/07/02 09:52:27;;;;;;;;;;;26.00;50.50;;;;;;4874520;29;20309;-90
2023/07/02 09:54:53;;;;;;;;;;;26.10;50.40;;;;;;4900181;29;19912;-90
2023/07/02 09:57:18;;;;;;;;;;;26.10;50.30;;;;;;4897970;29;20237;-91
2023/07/02 09:59:44;;;;;;;;;;;26.20;50.30;;;;;;4898148;29;20098;-91
2023/07/02 10:02:10;;;;;;;;;;;26.20;50.20;;;;;;4898620;29;19922;-90
2023/07/02 10:04:39;;;;;;;;;;;26.20;50.20;;;;;;4896956;29;19918;-91
2023/07/02 10:07:05;;;;;;;;;;;26.30;50.20;;;;;;4907238;29;19919;-91
2023/07/02 10:09:40;;;;;;;;;;;26.30;50.20;;;;;;4903267;29;20203;-91
2023/07/02 10:12:25;;;;;;;;;;;26.30;50.20;;;;;;4890191;29;20345;-91
2023/07/02 10:14:52;;;;;;;;;;;26.30;50.10;;;;;;4890928;29;19918;-90
2023/07/02 10:17:34;;;;;;;;;;;26.30;50.10;;;;;;4900705;29;20329;-91
2023/07/02 10:20:07;;;;;;;;;;;26.30;50.10;;;;;;4899402;29;19915;-91
2023/07/02 10:22:53;;;;;;;;;;;26.40;50.10;;;;;;4899624;29;19998;-91
2023/07/02 10:25:29;;;;;;;;;;;26.40;50.10;;;;;;4900212;29;19912;-91
2023/07/02 10:27:55;;;;;;;;;;;26.40;50.10;;;;;;4902378;29;19919;-91
2023/07/02 10:30:34;;;;;;;;;;;26.40;50.10;;;;;;4895227;29;20005;-91
2023/07/02 10:33:09;;;;;;;;;;;26.30;50.10;;;;;;4901136;29;20267;-91
2023/07/02 10:35:35;;;;;;;;;;;26.20;50.20;;;;;;4894939;29;19942;-91
2023/07/02 10:38:01;;;;;;;;;;;26.20;50.30;;;;;;4897569;29;20323;-92
2023/07/02 10:40:26;;;;;;;;;;;26.10;50.30;;;;;;4897548;29;19973;-91
2023/07/02 10:42:52;;;;;;;;;;;26.10;50.40;;;;;;4896867;29;19966;-91
2023/07/02 10:45:18;;;;;;;;;;;26.10;50.50;;;;;;4897978;29;20009;-91
2023/07/02 10:47:44;;;;;;;;;;;26.00;50.50;;;;;;4900195;29;20172;-91
2023/07/02 10:50:28;;;;;;;;;;;26.00;50.50;;;;;;4897497;29;19939;-91
2023/07/02 10:52:53;;;;;;;;;;;26.00;50.50;;;;;;4906469;29;19915;-92
2023/07/02 10:55:20;;;;;;;;;;;26.10;50.50;;;;;;4895557;29;19919;-91
2023/07/02 10:57:45;;;;;;;;;;;26.10;50.50;;;;;;4889046;29;20002;-92
2023/07/02 11:00:19;;;;;;;;;;;26.10;50.40;;;;;;4898072;29;20014;-92
2023/07/02 11:02:45;;;;;;;;;;;26.20;50.40;;;;;;4896797;29;19971;-91
2023/07/02 11:05:14;;;;;;;;;;;26.20;50.30;;;;;;4896977;29;20379;-91
2023/07/02 11:07:44;;;;;;;;;;;26.20;50.20;;;;;;4894112;29;19984;-91
2023/07/02 11:10:17;;;;;;;;;;;26.30;50.30;;;;;;4896521;29;19915;-92
2023/07/02 11:12:43;;;;;;;;;;;26.20;50.30;;;;;;4907892;29;19994;-92
2023/07/02 11:15:13;;;;;;;;;;;26.20;50.20;;;;;;4897154;29;20264;-91
2023/07/02 11:17:42;;;;;;;;;;;26.20;50.30;;;;;;4900766;29;19919;-92
2023/07/02 11:20:08;;;;;;;;;;;26.10;50.30;;;;;;4897540;29;20295;-90
2023/07/02 11:22:34;;;;;;;;;;;26.10;50.40;;;;;;4899098;29;19919;-92
2023/07/02 11:25:10;;;;;;;;;;;26.10;50.40;;;;;;4896775;29;19911;-93
2023/07/02 11:27:35;;;;;;;;;;;26.10;50.40;;;;;;4889258;29;19915;-92
2023/07/02 11:30:01;;;;;;;;;;;26.10;50.40;;;;;;4896782;29;19916;-91
2023/07/02 11:32:27;;;;;;;;;;;26.20;50.40;;;;;;4897869;29;19911;-92
2023/07/02 11:34:56;;;;;;;;;;;26.20;50.30;;;;;;4898872;29;20390;-92
2023/07/02 11:37:24;;;;;;;;;;;26.20;50.30;;;;;;4893988;29;20323;-91
2023/07/02 11:39:49;;;;;;;;;;;26.20;50.20;;;;;;4897625;29;20132;-91
2023/07/02 11:42:21;;;;;;;;;;;26.30;50.30;;;;;;4897227;29;20013;-91
2023/07/02 11:44:47;;;;;;;;;;;26.30;50.30;;;;;;4892684;29;20252;-91
2023/07/02 11:47:12;;;;;;;;;;;26.30;50.30;;;;;;4895028;29;19915;-91
2023/07/02 11:49:38;;;;;;;;;;;26.30;50.30;;;;;;4895259;29;19911;-92
2023/07/02 11:52:03;;;;;;;;;;;26.30;50.30;;;;;;4893686;29;20347;-92
2023/07/02 11:54:31;;;;;;;;;;;26.30;50.20;;;;;;4894067;29;19911;-91
2023/07/02 11:56:56;;;;;;;;;;;26.40;50.60;;;;;;4895830;29;20010;-92
2023/07/02 11:59:22;;;;;;;;;;;26.40;50.20;;;;;;4895476;29;20026;-91
2023/07/02 12:01:47;;;;;;;;;;;26.40;50.20;;;;;;4895593;29;19927;-91
2023/07/02 12:04:14;;;;;;;;;;;26.40;50.20;;;;;;4893429;29;19923;-91
2023/07/02 12:06:39;;;;;;;;;;;26.40;50.30;;;;;;4890652;29;19947;-91
2023/07/02 12:09:05;;;;;;;;;;;26.40;50.30;;;;;;4898751;29;19958;-89
2023/07/02 12:11:30;;;;;;;;;;;26.40;50.30;;;;;;4892357;29;19952;-91
2023/07/02 12:13:56;;;;;;;;;;;26.30;50.30;;;;;;4896239;29;20191;-89
2023/07/02 12:16:30;;;;;;;;;;;26.40;50.30;;;;;;4904627;29;19916;-90
2023/07/02 12:18:55;;;;;;;;;;;26.40;50.30;;;;;;4902786;29;20253;-90
2023/07/02 12:21:21;;;;;;;;;;;26.30;50.20;;;;;;4901171;29;19978;-89
2023/07/02 12:23:47;;;;;;;;;;;26.30;50.30;;;;;;4891840;29;19922;-89
2023/07/02 12:26:12;;;;;;;;;;;26.30;50.30;;;;;;4893682;29;19915;-89
2023/07/02 12:28:38;;;;;;;;;;;26.30;50.30;;;;;;4902325;29;20057;-89
2023/07/02 12:31:04;;;;;;;;;;;26.40;50.30;;;;;;4896097;29;19994;-89
2023/07/02 12:33:29;;;;;;;;;;;26.40;50.30;;;;;;4894522;29;20319;-89
2023/07/02 12:35:55;;;;;;;;;;;26.40;50.30;;;;;;4891416;29;19934;-89
2023/07/02 12:38:20;;;;;;;;;;;26.40;50.30;;;;;;4896966;29;19911;-89
2023/07/02 12:40:48;;;;;;;;;;;26.40;50.20;;;;;;4910439;29;20365;-89
2023/07/02 12:43:13;;;;;;;;;;;26.40;50.20;;;;;;4902652;29;20001;-89
2023/07/02 12:45:39;;;;;;;;;;;26.40;50.20;;;;;;4893874;29;20284;-89
2023/07/02 12:48:05;;;;;;;;;;;26.40;50.20;;;;;;4903892;29;19923;-90
2023/07/02 12:50:30;;;;;;;;;;;26.40;50.20;;;;;;4903555;29;20327;-90
2023/07/02 12:52:56;;;;;;;;;;;26.40;50.30;;;;;;4893587;29;19911;-89
2023/07/02 12:55:25;;;;;;;;;;;26.40;50.30;;;;;;4889521;29;19941;-88
2023/07/02 12:57:55;;;;;;;;;;;26.40;50.30;;;;;;4897580;29;20257;-91
2023/07/02 13:00:26;;;;;;;;;;;26.40;50.30;;;;;;4901002;29;19912;-89
2023/07/02 13:02:51;;;;;;;;;;;26.40;50.30;;;;;;4895987;29;20466;-90
2023/07/02 13:05:17;;;;;;;;;;;26.40;50.30;;;;;;4901916;29;20272;-89
2023/07/02 13:07:47;;;;;;;;;;;26.40;50.30;;;;;;4896509;29;19911;-89
2023/07/02 13:10:13;;;;;;;;;;;26.40;50.30;;;;;;4904762;29;19925;-89
2023/07/02 13:12:38;;;;;;;;;;;26.40;50.30;;;;;;4901982;29;19912;-88
2023/07/02 13:15:04;;;;;;;;;;;26.40;50.30;;;;;;4901837;29;20018;-89
2023/07/02 13:17:30;;;;;;;;;;;26.40;50.30;;;;;;4895830;29;19926;-89
2023/07/02 13:19:56;;;;;;;;;;;26.40;50.30;;;;;;4894999;29;19986;-90
2023/07/02 13:22:25;;;;;;;;;;;26.40;50.30;;;;;;4893132;29;19915;-90
2023/07/02 13:24:51;;;;;;;;;;;26.40;50.30;;;;;;4892250;29;19919;-89
2023/07/02 13:27:19;;;;;;;;;;;26.40;50.30;;;;;;4894515;29;19911;-89
2023/07/02 13:29:44;;;;;;;;;;;26.40;50.30;;;;;;4895627;29;19912;-89
2023/07/02 13:32:11;;;;;;;;;;;26.40;50.30;;;;;;4901900;29;19915;-89
2023/07/02 13:34:38;;;;;;;;;;;26.40;50.30;;;;;;4904793;29;20256;-89
2023/07/02 13:37:03;;;;;;;;;;;26.40;50.30;;;;;;4893434;29;19911;-89
2023/07/02 13:39:30;;;;;;;;;;;26.40;50.30;;;;;;4894013;29;19922;-90
2023/07/02 13:41:59;;;;;;;;;;;26.40;50.30;;;;;;4886414;29;19916;-90
2023/07/02 13:44:25;;;;;;;;;;;26.40;50.30;;;;;;4892692;29;20010;-89
2023/07/02 13:46:51;;;;;;;;;;;26.40;50.30;;;;;;4903459;29;20025;-90
2023/07/02 13:49:16;;;;;;;;;;;26.40;50.30;;;;;;4893834;29;19986;-90
2023/07/02 13:51:42;;;;;;;;;;;26.40;50.30;;;;;;4901372;29;19919;-90
2023/07/02 13:54:11;;;;;;;;;;;26.40;50.30;;;;;;4899876;29;20003;-89
2023/07/02 13:56:45;;;;;;;;;;;26.40;50.30;;;;;;4895653;29;19958;-88
2023/07/02 13:59:10;;;;;;;;;;;26.40;50.30;;;;;;4894951;29;19962;-90
2023/07/02 14:01:36;;;;;;;;;;;26.40;50.30;;;;;;4893445;29;19969;-89
2023/07/02 14:04:03;;;;;;;;;;;26.40;50.30;;;;;;4891763;29;19918;-89
2023/07/02 14:06:28;;;;;;;;;;;26.40;50.30;;;;;;4903852;29;19912;-89
2023/07/02 14:08:54;;;;;;;;;;;26.40;50.30;;;;;;4893502;29;19912;-88
2023/07/02 14:11:21;;;;;;;;;;;26.50;50.30;;;;;;4895083;29;19987;-90
2023/07/02 14:13:46;;;;;;;;;;;26.50;50.30;;;;;;4895657;29;19919;-90
2023/07/02 14:16:12;;;;;;;;;;;26.40;50.30;;;;;;4899158;29;19912;-90